createdAt,value
2023-04-04T00:00:41.499Z,3.83
2023-04-04T00:03:09.728Z,4.20
2023-04-04T00:05:37.726Z,7.43
2023-04-04T00:08:05.975Z,5.57
2023-04-04T00:10:35.291Z,6.20
2023-04-04T00:13:05.450Z,5.73
2023-04-04T00:15:34.592Z,4.80
2023-04-04T00:18:02.707Z,6.40
2023-04-04T00:20:30.770Z,4.93
2023-04-04T00:22:59.304Z,4.40
2023-04-04T00:25:27.333Z,3.67
2023-04-04T00:28:00.411Z,3.63
2023-04-04T00:30:28.360Z,5.93
2023-04-04T00:32:57.240Z,5.60
2023-04-04T00:35:25.314Z,5.30
2023-04-04T00:37:53.391Z,5.30
2023-04-04T00:40:21.317Z,6.23
2023-04-04T00:42:49.355Z,3.73
2023-04-04T00:45:18.820Z,4.53
2023-04-04T00:47:48.279Z,5.13
2023-04-04T00:50:16.870Z,3.80
2023-04-04T00:52:44.996Z,6.63
2023-04-04T00:55:13.022Z,4.93
2023-04-04T00:57:40.972Z,6.43
2023-04-04T01:00:10.300Z,4.53
2023-04-04T01:02:39.690Z,5.20
2023-04-04T01:05:08.737Z,5.67
2023-04-04T01:07:37.285Z,3.67
2023-04-04T01:10:06.863Z,6.77
2023-04-04T01:12:35.542Z,4.20
2023-04-04T01:15:03.639Z,5.10
2023-04-04T01:17:31.767Z,5.37
2023-04-04T01:20:06.506Z,4.83
2023-04-04T01:22:48.130Z,7.13
2023-04-04T01:25:17.603Z,5.87
2023-04-04T01:27:50.288Z,5.20
2023-04-04T01:30:19.820Z,4.23
2023-04-04T01:32:52.554Z,4.00
2023-04-04T01:35:27.282Z,3.90
2023-04-04T01:38:05.363Z,7.97
2023-04-04T01:40:35.533Z,6.00
2023-04-04T01:43:05.698Z,4.37
2023-04-04T01:45:35.366Z,5.97
2023-04-04T01:48:09.122Z,5.10
2023-04-04T01:50:37.065Z,4.27
2023-04-04T01:53:05.938Z,4.53
2023-04-04T01:55:33.934Z,4.93
2023-04-04T01:58:02.148Z,6.67
2023-04-04T02:00:31.648Z,7.03
2023-04-04T02:03:00.342Z,5.07
2023-04-04T02:05:28.323Z,8.20
2023-04-04T02:07:56.557Z,6.50
2023-04-04T02:10:32.851Z,6.80
2023-04-04T02:13:00.769Z,6.70
2023-04-04T02:15:29.091Z,8.07
2023-04-04T02:18:00.509Z,5.90
2023-04-04T02:20:29.761Z,5.80
2023-04-04T02:22:58.047Z,8.47
2023-04-04T02:25:26.685Z,6.97
2023-04-04T02:27:54.639Z,8.97
2023-04-04T02:30:22.590Z,7.90
2023-04-04T02:32:52.936Z,9.17
2023-04-04T02:35:23.382Z,7.67
2023-04-04T02:37:51.703Z,8.43
2023-04-04T02:40:29.253Z,7.10
2023-04-04T02:42:57.232Z,5.97
2023-04-04T02:45:25.520Z,8.57
2023-04-04T02:48:03.733Z,6.40
2023-04-04T02:50:41.502Z,7.83
2023-04-04T02:53:12.271Z,6.43
2023-04-04T02:55:40.236Z,6.57
2023-04-04T02:58:08.103Z,8.30
2023-04-04T03:00:36.101Z,6.10
2023-04-04T03:03:04.103Z,11.37
2023-04-04T03:05:36.349Z,7.03
2023-04-04T03:08:06.159Z,8.97
2023-04-04T03:10:34.106Z,7.23
2023-04-04T03:13:02.072Z,7.93
2023-04-04T03:15:31.871Z,7.50
2023-04-04T03:18:00.259Z,7.40
2023-04-04T03:20:31.343Z,5.90
2023-04-04T03:22:59.500Z,9.50
2023-04-04T03:25:29.207Z,8.30
2023-04-04T03:27:58.101Z,9.07
2023-04-04T03:30:27.658Z,6.47
2023-04-04T03:32:56.402Z,8.57
2023-04-04T03:35:24.527Z,12.37
2023-04-04T03:37:52.608Z,6.57
2023-04-04T03:40:20.540Z,5.93
2023-04-04T03:42:50.122Z,6.87
2023-04-04T03:45:20.604Z,6.23
2023-04-04T03:47:48.571Z,7.93
2023-04-04T03:50:17.222Z,7.37
2023-04-04T03:52:51.386Z,6.43
2023-04-04T03:55:20.122Z,7.80
2023-04-04T03:57:49.586Z,8.13
2023-04-04T04:00:18.295Z,7.67
2023-04-04T04:02:47.110Z,7.80
2023-04-04T04:05:15.142Z,8.07
2023-04-04T04:07:45.362Z,7.83
2023-04-04T04:10:14.266Z,12.30
2023-04-04T04:12:42.545Z,7.73
2023-04-04T04:15:12.572Z,6.50
2023-04-04T04:17:43.049Z,7.47
2023-04-04T04:20:13.341Z,7.67
2023-04-04T04:22:47.136Z,8.87
2023-04-04T04:25:15.371Z,8.30
2023-04-04T04:27:47.037Z,7.93
2023-04-04T04:30:16.700Z,10.23
2023-04-04T04:32:46.614Z,7.27
2023-04-04T04:35:15.599Z,8.57
2023-04-04T04:37:44.221Z,11.87
2023-04-04T04:40:14.139Z,8.60
2023-04-04T04:42:51.987Z,9.37
2023-04-04T04:45:24.706Z,8.40
2023-04-04T04:48:04.675Z,10.10
2023-04-04T04:50:34.877Z,9.33
2023-04-04T04:53:03.345Z,7.50
2023-04-04T04:55:31.301Z,9.37
2023-04-04T04:58:06.218Z,8.10
2023-04-04T05:00:36.424Z,7.37
2023-04-04T05:03:06.816Z,10.37
2023-04-04T05:05:39.483Z,8.77
2023-04-04T05:08:13.329Z,9.50
2023-04-04T05:10:54.850Z,8.83
2023-04-04T05:13:24.366Z,9.53
2023-04-04T05:15:53.856Z,9.60
2023-04-04T05:18:22.478Z,11.37
2023-04-04T05:20:55.169Z,11.67
2023-04-04T05:23:25.330Z,15.37
2023-04-04T05:25:54.303Z,6.57
2023-04-04T05:28:23.736Z,8.60
2023-04-04T05:30:56.578Z,9.07
2023-04-04T05:33:27.566Z,7.00
2023-04-04T05:36:05.998Z,8.87
2023-04-04T05:38:40.246Z,9.23
2023-04-04T05:41:08.703Z,7.00
2023-04-04T05:43:36.982Z,7.13
2023-04-04T05:46:13.329Z,8.47
2023-04-04T05:48:47.543Z,10.03
2023-04-04T05:51:15.569Z,7.03
2023-04-04T05:54:07.324Z,8.43
2023-04-04T05:56:36.305Z,9.90
2023-04-04T05:59:08.471Z,9.93
2023-04-04T06:01:46.306Z,5.17
2023-04-04T06:04:15.996Z,9.27
2023-04-04T06:06:45.356Z,7.03
2023-04-04T06:09:13.742Z,8.97
2023-04-04T06:11:41.634Z,6.70
2023-04-04T06:14:13.914Z,7.97
2023-04-04T06:16:43.061Z,6.87
2023-04-04T06:19:12.248Z,6.53
2023-04-04T06:21:40.140Z,8.77
2023-04-04T06:24:08.944Z,5.90
2023-04-04T06:26:37.720Z,7.10
2023-04-04T06:29:05.833Z,7.23
2023-04-04T06:31:37.706Z,5.43
2023-04-04T06:34:14.737Z,7.37
2023-04-04T06:36:52.763Z,6.67
2023-04-04T06:39:21.493Z,6.30
2023-04-04T06:41:50.939Z,10.80
2023-04-04T06:44:25.726Z,12.27
2023-04-04T06:46:53.785Z,9.13
2023-04-04T06:49:23.146Z,8.93
2023-04-04T06:51:52.559Z,7.07
2023-04-04T06:54:21.019Z,10.20
2023-04-04T06:56:48.968Z,7.17
2023-04-04T06:59:17.296Z,12.97
2023-04-04T07:01:46.118Z,8.03
2023-04-04T07:04:14.100Z,9.27
2023-04-04T07:06:44.006Z,5.43
2023-04-04T07:09:22.006Z,5.47
2023-04-04T07:11:54.362Z,5.87
2023-04-04T07:14:24.999Z,4.23
2023-04-04T07:16:53.042Z,7.93
2023-04-04T07:19:24.070Z,13.50
2023-04-04T07:21:53.528Z,5.07
2023-04-04T07:24:21.535Z,6.27
2023-04-04T07:26:49.510Z,4.43
2023-04-04T07:29:17.562Z,5.27
2023-04-04T07:31:45.909Z,4.20
2023-04-04T07:34:13.980Z,2.93
2023-04-04T07:36:42.091Z,3.03
2023-04-04T07:39:11.489Z,4.43
2023-04-04T07:41:39.365Z,3.80
2023-04-04T07:44:07.694Z,2.40
2023-04-04T07:46:35.619Z,4.40
2023-04-04T07:49:03.698Z,5.00
2023-04-04T07:51:31.831Z,3.90
2023-04-04T07:54:00.056Z,4.27
2023-04-04T07:56:29.380Z,6.37
2023-04-04T07:58:57.303Z,4.17
2023-04-04T08:01:25.308Z,4.90
2023-04-04T08:03:53.667Z,2.87
2023-04-04T08:06:22.121Z,4.23
2023-04-04T08:08:50.820Z,4.17
2023-04-04T08:11:19.018Z,4.73
2023-04-04T08:13:48.210Z,2.83
2023-04-04T08:16:16.106Z,3.43
2023-04-04T08:18:44.638Z,3.87
2023-04-04T08:21:12.818Z,4.07
2023-04-04T08:23:40.986Z,2.83
2023-04-04T08:26:08.934Z,5.00
2023-04-04T08:28:36.860Z,3.17
2023-04-04T08:31:06.312Z,2.73
2023-04-04T08:33:46.680Z,3.23
2023-04-04T08:36:16.145Z,3.10
2023-04-04T08:38:44.622Z,4.47
2023-04-04T08:41:13.225Z,3.07
2023-04-04T08:43:43.586Z,3.90
2023-04-04T08:46:13.345Z,4.23
2023-04-04T08:48:43.235Z,2.77
2023-04-04T08:51:12.164Z,4.17
2023-04-04T08:53:40.595Z,2.47
2023-04-04T08:56:08.765Z,3.30
2023-04-04T08:58:38.916Z,2.87
2023-04-04T09:01:07.274Z,4.07
2023-04-04T09:03:37.263Z,3.93
2023-04-04T09:06:05.807Z,3.43
2023-04-04T09:08:33.808Z,4.67
2023-04-04T09:11:03.602Z,3.10
2023-04-04T09:13:31.529Z,2.40
2023-04-04T09:16:00.109Z,3.77
2023-04-04T09:18:28.017Z,2.43
2023-04-04T09:20:57.299Z,2.67
2023-04-04T09:23:25.694Z,2.73
2023-04-04T09:28:25.505Z,4.43
2023-04-04T09:30:53.845Z,4.77
2023-04-04T09:33:23.951Z,4.77
2023-04-04T09:35:53.637Z,3.03
2023-04-04T09:38:24.731Z,2.37
2023-04-04T09:40:54.000Z,2.67
2023-04-04T09:43:23.331Z,4.93
2023-04-04T09:45:51.707Z,2.70
2023-04-04T09:48:27.245Z,3.57
2023-04-04T09:50:55.465Z,3.20
2023-04-04T09:53:25.057Z,4.80
2023-04-04T09:55:53.974Z,2.40
2023-04-04T09:58:26.110Z,5.10
2023-04-04T10:00:55.354Z,4.80
2023-04-04T10:03:24.422Z,3.07
2023-04-04T10:06:03.349Z,2.80
2023-04-04T10:08:34.680Z,3.67
2023-04-04T10:11:11.069Z,3.20
2023-04-04T10:13:43.697Z,3.67
2023-04-04T10:16:13.776Z,5.03
2023-04-04T10:18:42.169Z,2.70
2023-04-04T10:23:44.047Z,2.13
2023-04-04T10:26:13.149Z,2.53
2023-04-04T10:28:42.216Z,2.57
2023-04-04T10:31:17.280Z,2.97
2023-04-04T10:33:49.678Z,2.57
2023-04-04T10:36:22.800Z,2.53
2023-04-04T10:38:59.673Z,3.43
2023-04-04T10:41:28.760Z,3.07
2023-04-04T10:43:57.860Z,3.80
2023-04-04T10:46:30.814Z,3.03
2023-04-04T10:48:59.246Z,4.53
2023-04-04T10:51:28.014Z,2.60
2023-04-04T10:53:57.341Z,3.30
2023-04-04T10:56:25.553Z,2.53
2023-04-04T10:59:10.563Z,3.17
2023-04-04T11:01:49.288Z,2.83
2023-04-04T11:04:20.720Z,4.37
2023-04-04T11:07:16.104Z,2.40
2023-04-04T11:09:55.426Z,3.87
2023-04-04T11:12:28.403Z,2.97
2023-04-04T11:14:58.037Z,2.53
2023-04-04T11:17:58.733Z,3.40
2023-04-04T11:20:32.341Z,2.47
2023-04-04T11:23:05.257Z,2.20
2023-04-04T11:25:36.093Z,2.80
2023-04-04T11:28:09.488Z,4.53
2023-04-04T11:30:44.035Z,3.17
2023-04-04T11:33:13.898Z,2.87
2023-04-04T11:35:42.931Z,2.37
2023-04-04T11:38:14.938Z,1.50
2023-04-04T11:40:54.335Z,2.77
2023-04-04T11:43:22.415Z,2.30
2023-04-04T11:45:50.759Z,3.40
2023-04-04T11:48:20.929Z,2.20
2023-04-04T11:50:52.762Z,3.80
2023-04-04T11:53:20.958Z,2.53
2023-04-04T11:55:51.594Z,5.43
2023-04-04T11:58:20.427Z,12.43
2023-04-04T12:00:49.004Z,5.13
2023-04-04T12:03:18.494Z,2.50
2023-04-04T12:05:47.679Z,3.67
2023-04-04T12:08:15.834Z,1.87
2023-04-04T12:10:44.393Z,3.67
2023-04-04T12:13:14.029Z,3.07
2023-04-04T12:15:44.027Z,4.33
2023-04-04T12:18:11.994Z,3.57
2023-04-04T12:20:41.375Z,2.47
2023-04-04T12:23:09.568Z,1.70
2023-04-04T12:25:40.228Z,2.80
2023-04-04T12:28:08.761Z,2.90
2023-04-04T12:30:38.418Z,1.70
2023-04-04T12:33:06.553Z,2.53
2023-04-04T12:35:34.561Z,4.17
2023-04-04T12:38:04.045Z,3.40
2023-04-04T12:40:37.376Z,3.40
2023-04-04T12:43:09.305Z,2.80
2023-04-04T12:45:43.813Z,6.00
2023-04-04T12:48:13.855Z,3.27
2023-04-04T12:50:53.124Z,2.47
2023-04-04T12:53:28.457Z,4.27
2023-04-04T12:56:02.194Z,4.07
2023-04-04T12:58:30.352Z,3.47
2023-04-04T13:01:01.594Z,7.00
2023-04-04T13:03:30.220Z,4.20
2023-04-04T13:05:59.745Z,4.50
2023-04-04T13:08:27.620Z,3.90
2023-04-04T13:11:04.596Z,3.60
2023-04-04T13:13:37.169Z,2.93
2023-04-04T13:16:08.276Z,5.33
2023-04-04T13:18:38.368Z,1.90
2023-04-04T13:21:08.362Z,3.20
2023-04-04T13:23:37.760Z,1.37
2023-04-04T13:26:05.971Z,4.13
2023-04-04T13:28:33.824Z,3.30
2023-04-04T13:31:03.603Z,3.17
2023-04-04T13:33:33.249Z,2.37
2023-04-04T13:36:01.454Z,4.23
2023-04-04T13:38:30.412Z,3.57
2023-04-04T13:40:59.194Z,2.23
2023-04-04T13:43:27.347Z,2.13
2023-04-04T13:45:55.889Z,2.77
2023-04-04T13:48:23.997Z,2.07
2023-04-04T13:50:55.257Z,2.90
2023-04-04T13:53:23.449Z,2.40
2023-04-04T13:56:16.332Z,2.07
2023-04-04T13:58:39.481Z,4.80
2023-04-04T14:01:08.257Z,3.47
2023-04-04T14:03:36.982Z,2.43
2023-04-04T14:06:10.851Z,2.90
2023-04-04T14:08:39.039Z,1.77
2023-04-04T14:11:07.025Z,2.43
2023-04-04T14:13:36.162Z,1.57
2023-04-04T14:16:04.459Z,2.57
2023-04-04T14:18:32.434Z,3.33
2023-04-04T14:21:00.313Z,3.83
2023-04-04T14:23:30.638Z,2.40
2023-04-04T14:25:58.593Z,1.87
2023-04-04T14:28:26.513Z,2.47
2023-04-04T14:30:54.364Z,1.70
2023-04-04T14:33:22.259Z,2.87
2023-04-04T14:35:50.989Z,2.57
2023-04-04T14:38:18.922Z,10.47
2023-04-04T14:40:48.201Z,3.10
2023-04-04T14:43:16.221Z,6.80
2023-04-04T14:45:44.085Z,4.53
2023-04-04T14:48:12.241Z,1.87
2023-04-04T14:50:42.595Z,2.43
2023-04-04T14:53:10.507Z,4.40
2023-04-04T14:55:38.730Z,3.20
2023-04-04T14:58:08.266Z,2.37
2023-04-04T15:00:36.193Z,2.30
2023-04-04T15:03:07.214Z,4.67
2023-04-04T15:05:35.382Z,3.13
2023-04-04T15:08:03.266Z,5.50
2023-04-04T15:10:31.256Z,2.60
2023-04-04T15:12:59.128Z,2.73
2023-04-04T15:15:29.196Z,4.63
2023-04-04T15:17:57.273Z,4.43
2023-04-04T15:20:25.166Z,3.63
2023-04-04T15:22:53.095Z,3.17
2023-04-04T15:25:21.124Z,5.00
2023-04-04T15:27:49.007Z,5.90
2023-04-04T15:30:17.131Z,3.93
2023-04-04T15:32:46.845Z,3.27
2023-04-04T15:35:18.627Z,3.70
2023-04-04T15:37:46.728Z,3.67
2023-04-04T15:40:15.492Z,2.40
2023-04-04T15:42:43.454Z,6.13
2023-04-04T15:45:13.069Z,3.80
2023-04-04T15:47:44.922Z,1.80
2023-04-04T15:50:14.416Z,4.00
2023-04-04T15:52:42.322Z,2.73
2023-04-04T15:55:12.975Z,3.20
2023-04-04T15:57:42.684Z,4.10
2023-04-04T16:00:12.092Z,2.53
2023-04-04T16:02:40.324Z,2.60
2023-04-04T16:05:08.869Z,3.73
2023-04-04T16:07:38.221Z,4.20
2023-04-04T16:10:07.329Z,2.23
2023-04-04T16:12:35.210Z,2.43
2023-04-04T16:15:03.145Z,2.53
2023-04-04T16:17:33.195Z,3.10
2023-04-04T16:20:01.627Z,4.50
2023-04-04T16:22:29.543Z,3.10
2023-04-04T16:24:58.823Z,4.43
2023-04-04T16:27:27.110Z,3.17
2023-04-04T16:29:55.382Z,2.47
2023-04-04T16:32:23.351Z,5.57
2023-04-04T16:34:51.435Z,3.30
2023-04-04T16:37:19.373Z,2.67
2023-04-04T16:39:48.120Z,3.97
2023-04-04T16:42:19.474Z,3.73
2023-04-04T16:44:47.828Z,2.23
2023-04-04T16:47:15.896Z,3.73
2023-04-04T16:49:43.822Z,2.03
2023-04-04T16:52:11.702Z,3.00
2023-04-04T16:54:39.589Z,3.73
2023-04-04T16:57:07.493Z,2.87
2023-04-04T16:59:37.653Z,4.17
2023-04-04T17:02:07.794Z,3.03
2023-04-04T17:04:36.579Z,3.80
2023-04-04T17:07:04.511Z,5.30
2023-04-04T17:09:32.425Z,2.83
2023-04-04T17:12:01.317Z,4.63
2023-04-04T17:14:31.945Z,3.47
2023-04-04T17:17:01.261Z,5.17
2023-04-04T17:19:31.717Z,4.83
2023-04-04T17:21:59.775Z,5.00
2023-04-04T17:24:27.703Z,3.57
2023-04-04T17:26:57.792Z,3.30
2023-04-04T17:29:27.497Z,3.67
2023-04-04T17:31:56.068Z,4.63
2023-04-04T17:34:25.606Z,4.10
2023-04-04T17:36:54.078Z,3.77
2023-04-04T17:39:22.123Z,3.23
2023-04-04T17:41:50.386Z,7.20
2023-04-04T17:44:19.233Z,4.37
2023-04-04T17:46:47.289Z,5.30
2023-04-04T17:49:19.412Z,3.73
2023-04-04T17:51:49.491Z,3.93
2023-04-04T17:54:18.075Z,3.53
2023-04-04T17:56:46.773Z,4.00
2023-04-04T17:59:15.742Z,4.17
2023-04-04T18:01:44.190Z,4.13
2023-04-04T18:04:12.125Z,3.67
2023-04-04T18:06:41.647Z,4.87
2023-04-04T18:09:11.214Z,4.30
2023-04-04T18:11:40.059Z,4.90
2023-04-04T18:14:08.446Z,5.30
2023-04-04T18:16:40.424Z,4.30
2023-04-04T18:19:09.313Z,4.87
2023-04-04T18:21:37.509Z,5.40
2023-04-04T18:24:07.365Z,3.23
2023-04-04T18:26:36.646Z,4.07
2023-04-04T18:29:04.486Z,4.07
2023-04-04T18:31:32.480Z,4.53
2023-04-04T18:34:00.875Z,3.90
2023-04-04T18:36:28.942Z,3.47
2023-04-04T18:38:56.866Z,4.23
2023-04-04T18:41:24.816Z,5.70
2023-04-04T18:43:54.203Z,4.30
2023-04-04T18:46:23.069Z,6.93
2023-04-04T18:48:51.052Z,5.03
2023-04-04T18:51:19.634Z,5.13
2023-04-04T18:53:48.319Z,6.00
2023-04-04T18:56:16.180Z,5.67
2023-04-04T18:58:44.078Z,5.03
2023-04-04T19:01:13.748Z,5.80
2023-04-04T19:03:42.832Z,6.73
2023-04-04T19:06:12.649Z,3.57
2023-04-04T19:08:41.072Z,3.90
2023-04-04T19:11:09.217Z,5.50
2023-04-04T19:13:37.448Z,3.27
2023-04-04T19:16:05.915Z,4.07
2023-04-04T19:18:35.276Z,4.23
2023-04-04T19:21:05.011Z,6.20
2023-04-04T19:23:32.845Z,6.10
2023-04-04T19:26:02.229Z,6.83
2023-04-04T19:28:30.398Z,5.83
2023-04-04T19:30:58.417Z,6.70
2023-04-04T19:33:27.327Z,7.07
2023-04-04T19:35:59.003Z,5.03
2023-04-04T19:38:28.600Z,6.07
2023-04-04T19:40:58.445Z,4.70
2023-04-04T19:43:27.044Z,5.80
2023-04-04T19:45:56.214Z,6.83
2023-04-04T19:48:43.159Z,7.03
2023-04-04T19:51:40.494Z,5.90
2023-04-04T19:54:12.850Z,6.97
2023-04-04T19:56:41.000Z,10.67
2023-04-04T19:59:10.735Z,7.37
2023-04-04T20:01:42.643Z,7.37
2023-04-04T20:04:15.397Z,7.67
2023-04-04T20:06:44.598Z,12.27
2023-04-04T20:09:14.333Z,6.00
2023-04-04T20:11:42.183Z,6.10
2023-04-04T20:14:10.742Z,9.20
2023-04-04T20:16:38.694Z,6.33
2023-04-04T20:19:08.089Z,6.90
2023-04-04T20:21:36.150Z,6.77
2023-04-04T20:24:08.343Z,6.50
2023-04-04T20:26:54.963Z,10.10
2023-04-04T20:29:26.072Z,6.50
2023-04-04T20:31:55.781Z,8.33
2023-04-04T20:34:38.538Z,5.57
2023-04-04T20:37:09.182Z,6.07
2023-04-04T20:39:41.248Z,8.77
2023-04-04T20:42:18.249Z,4.20
2023-04-04T20:44:46.258Z,6.70
2023-04-04T20:47:42.542Z,7.00
2023-04-04T20:50:43.825Z,5.40
2023-04-04T20:53:17.017Z,8.03
2023-04-04T20:55:46.338Z,7.53
2023-04-04T20:58:26.534Z,5.60
2023-04-04T21:00:55.124Z,3.50
2023-04-04T21:03:30.090Z,8.60
2023-04-04T21:06:02.209Z,5.03
2023-04-04T21:08:38.676Z,6.40
2023-04-04T21:11:07.958Z,3.77
2023-04-04T21:13:37.876Z,5.70
2023-04-04T21:16:09.420Z,4.53
2023-04-04T21:18:38.025Z,5.33
2023-04-04T21:21:18.587Z,4.33
2023-04-04T21:23:48.907Z,4.97
2023-04-04T21:26:28.271Z,5.23
2023-04-04T21:28:56.787Z,5.23
2023-04-04T21:31:26.699Z,4.27
2023-04-04T21:33:56.071Z,4.10
2023-04-04T21:36:29.016Z,6.40
2023-04-04T21:38:58.393Z,5.57
2023-04-04T21:41:28.558Z,4.37
2023-04-04T21:43:58.273Z,5.20
2023-04-04T21:46:27.712Z,6.00
2023-04-04T21:48:56.176Z,7.80
2023-04-04T21:51:24.089Z,6.30
2023-04-04T21:53:52.228Z,5.57
2023-04-04T21:56:21.167Z,6.53
2023-04-04T21:58:50.888Z,6.07
2023-04-04T22:01:18.742Z,7.17
2023-04-04T22:03:46.722Z,7.87
2023-04-04T22:06:14.672Z,7.27
2023-04-04T22:08:42.600Z,8.00
2023-04-04T22:11:13.394Z,6.67
2023-04-04T22:13:46.867Z,4.80
2023-04-04T22:16:17.284Z,6.43
2023-04-04T22:18:46.824Z,4.40
2023-04-04T22:21:15.557Z,9.60
2023-04-04T22:23:44.719Z,6.03
2023-04-04T22:26:15.209Z,7.30
2023-04-04T22:28:45.622Z,5.77
2023-04-04T22:31:13.566Z,4.73
2023-04-04T22:33:43.297Z,5.37
2023-04-04T22:36:11.246Z,7.23
2023-04-04T22:38:39.415Z,5.40
2023-04-04T22:41:07.353Z,5.17
2023-04-04T22:43:35.385Z,6.33
2023-04-04T22:46:03.507Z,5.50
2023-04-04T22:48:31.794Z,6.93
2023-04-04T22:51:02.733Z,6.53
2023-04-04T22:53:30.956Z,5.00
2023-04-04T22:56:00.582Z,5.47
2023-04-04T22:58:28.412Z,5.77
2023-04-04T23:00:56.336Z,6.83
2023-04-04T23:03:24.316Z,4.30
2023-04-04T23:05:52.253Z,5.30
2023-04-04T23:08:21.552Z,6.53
2023-04-04T23:10:49.475Z,6.43
2023-04-04T23:13:17.626Z,6.43
2023-04-04T23:15:45.534Z,5.70
2023-04-04T23:18:13.583Z,5.10
2023-04-04T23:20:42.359Z,4.73
2023-04-04T23:23:10.512Z,7.03
2023-04-04T23:25:39.934Z,5.30
2023-04-04T23:28:07.875Z,5.93
2023-04-04T23:30:36.042Z,7.77
2023-04-04T23:33:03.922Z,7.27
2023-04-04T23:35:31.845Z,4.10
2023-04-04T23:37:59.716Z,6.30
2023-04-04T23:40:27.663Z,4.77
2023-04-04T23:42:56.965Z,6.53
2023-04-04T23:45:25.992Z,4.67
2023-04-04T23:47:54.222Z,6.37
2023-04-04T23:50:22.193Z,5.07
2023-04-04T23:52:50.085Z,5.60
2023-04-04T23:55:19.032Z,5.77
2023-04-04T23:57:47.100Z,7.27
